sensor_id;sensor_type;location;lat;lon;timestamp;pressure;altitude;pressure_sealevel;temperature;humidity
38038;BME280;23843;51.320;12.340;2023-02-18T05:31:46;100566.56;;;8.97;100.00
38038;BME280;23843;51.320;12.340;2023-02-18T05:34:12;100560.28;;;8.99;100.00
38038;BME280;23843;51.320;12.340;2023-02-18T05:36:39;100547.16;;;8.98;100.00
38038;BME280;23843;51.320;12.340;2023-02-18T05:39:06;100541.03;;;8.97;100.00
38038;BME280;23843;51.320;12.340;2023-02-18T05:41:32;100541.66;;;9.03;100.00
38038;BME280;23843;51.320;12.340;2023-02-18T05:43:58;100531.94;;;9.03;100.00
38038;BME280;23843;51.320;12.340;2023-02-18T05:46:24;100533.44;;;9.09;100.00
38038;BME280;23843;51.320;12.340;2023-02-18T05:48:51;100545.09;;;9.05;100.00
38038;BME280;23843;51.320;12.340;2023-02-18T05:51:16;100531.59;;;9.11;100.00
38038;BME280;23843;51.320;12.340;2023-02-18T05:53:42;100529.47;;;9.19;100.00
38038;BME280;23843;51.320;12.340;2023-02-18T05:56:09;100528.69;;;9.17;100.00
38038;BME280;23843;51.320;12.340;2023-02-18T05:58:35;100537.34;;;9.20;100.00
38038;BME280;23843;51.320;12.340;2023-02-18T06:01:00;100533.53;;;9.26;100.00
38038;BME280;23843;51.320;12.340;2023-02-18T06:03:27;100529.03;;;9.28;100.00
38038;BME280;23843;51.320;12.340;2023-02-18T06:05:53;100530.78;;;9.29;100.00
38038;BME280;23843;51.320;12.340;2023-02-18T06:08:25;100534.97;;;9.33;100.00
38038;BME280;23843;51.320;12.340;2023-02-18T06:10:51;100527.84;;;9.35;100.00
38038;BME280;23843;51.320;12.340;2023-02-18T06:13:17;100541.06;;;9.35;100.00
38038;BME280;23843;51.320;12.340;2023-02-18T06:15:43;100540.84;;;9.40;100.00
38038;BME280;23843;51.320;12.340;2023-02-18T06:18:08;100528.41;;;9.42;100.00
38038;BME280;23843;51.320;12.340;2023-02-18T06:20:34;100537.06;;;9.46;100.00
38038;BME280;23843;51.320;12.340;2023-02-18T06:23:02;100534.41;;;9.46;100.00
38038;BME280;23843;51.320;12.340;2023-02-18T06:25:28;100532.56;;;9.48;100.00
38038;BME280;23843;51.320;12.340;2023-02-18T06:27:53;100534.28;;;9.49;100.00
38038;BME280;23843;51.320;12.340;2023-02-18T06:30:19;100522.75;;;9.50;100.00
38038;BME280;23843;51.320;12.340;2023-02-18T06:32:44;100522.56;;;9.54;100.00
38038;BME280;23843;51.320;12.340;2023-02-18T06:35:10;100517.25;;;9.54;100.00
38038;BME280;23843;51.320;12.340;2023-02-18T06:37:36;100513.69;;;9.55;100.00
38038;BME280;23843;51.320;12.340;2023-02-18T06:40:06;100512.66;;;9.58;100.00
38038;BME280;23843;51.320;12.340;2023-02-18T06:42:32;100512.59;;;9.59;100.00
38038;BME280;23843;51.320;12.340;2023-02-18T06:44:59;100510.97;;;9.57;100.00
38038;BME280;23843;51.320;12.340;2023-02-18T06:47:24;100495.94;;;9.57;100.00
38038;BME280;23843;51.320;12.340;2023-02-18T06:49:50;100496.75;;;9.59;100.00
38038;BME280;23843;51.320;12.340;2023-02-18T06:52:16;100494.94;;;9.60;100.00
38038;BME280;23843;51.320;12.340;2023-02-18T06:54:42;100488.59;;;9.64;100.00
38038;BME280;23843;51.320;12.340;2023-02-18T06:57:09;100485.00;;;9.65;100.00
38038;BME280;23843;51.320;12.340;2023-02-18T06:59:34;100476.38;;;9.61;100.00
38038;BME280;23843;51.320;12.340;2023-02-18T07:02:00;100468.50;;;9.60;100.00
38038;BME280;23843;51.320;12.340;2023-02-18T07:04:26;100464.94;;;9.61;100.00
38038;BME280;23843;51.320;12.340;2023-02-18T07:06:51;100453.41;;;9.62;100.00
38038;BME280;23843;51.320;12.340;2023-02-18T07:09:17;100455.06;;;9.64;100.00
38038;BME280;23843;51.320;12.340;2023-02-18T07:11:44;100453.88;;;9.70;100.00
38038;BME280;23843;51.320;12.340;2023-02-18T07:14:11;100442.41;;;9.71;100.00
38038;BME280;23843;51.320;12.340;2023-02-18T07:16:38;100446.75;;;9.72;100.00
38038;BME280;23843;51.320;12.340;2023-02-18T07:19:04;100439.75;;;9.71;100.00
38038;BME280;23843;51.320;12.340;2023-02-18T07:21:31;100439.59;;;9.74;100.00
38038;BME280;23843;51.320;12.340;2023-02-18T07:23:57;100436.88;;;9.76;100.00
38038;BME280;23843;51.320;12.340;2023-02-18T07:26:22;100432.44;;;9.76;100.00
38038;BME280;23843;51.320;12.340;2023-02-18T07:28:48;100437.56;;;9.79;100.00
38038;BME280;23843;51.320;12.340;2023-02-18T07:31:15;100438.28;;;9.83;100.00
38038;BME280;23843;51.320;12.340;2023-02-18T07:33:40;100427.59;;;9.84;100.00
38038;BME280;23843;51.320;12.340;2023-02-18T07:36:07;100421.25;;;9.89;100.00
38038;BME280;23843;51.320;12.340;2023-02-18T07:38:33;100420.38;;;9.88;100.00
38038;BME280;23843;51.320;12.340;2023-02-18T07:40:59;100418.75;;;9.85;100.00
38038;BME280;23843;51.320;12.340;2023-02-18T07:43:25;100420.53;;;9.85;100.00
38038;BME280;23843;51.320;12.340;2023-02-18T07:45:51;100401.94;;;9.86;100.00
38038;BME280;23843;51.320;12.340;2023-02-18T07:48:17;100406.84;;;9.94;100.00
38038;BME280;23843;51.320;12.340;2023-02-18T07:50:44;100400.47;;;9.98;100.00
38038;BME280;23843;51.320;12.340;2023-02-18T07:53:10;100396.03;;;9.99;100.00
38038;BME280;23843;51.320;12.340;2023-02-18T07:55:37;100396.47;;;10.07;100.00
38038;BME280;23843;51.320;12.340;2023-02-18T07:58:03;100396.34;;;10.10;100.00
38038;BME280;23843;51.320;12.340;2023-02-18T08:00:28;100401.41;;;10.15;100.00
38038;BME280;23843;51.320;12.340;2023-02-18T08:02:54;100398.50;;;10.19;100.00
38038;BME280;23843;51.320;12.340;2023-02-18T08:05:21;100390.41;;;10.22;100.00
38038;BME280;23843;51.320;12.340;2023-02-18T08:07:46;100391.94;;;10.26;100.00
38038;BME280;23843;51.320;12.340;2023-02-18T08:10:12;100405.06;;;10.30;100.00
38038;BME280;23843;51.320;12.340;2023-02-18T08:12:38;100398.75;;;10.32;100.00
38038;BME280;23843;51.320;12.340;2023-02-18T08:15:03;100389.78;;;10.35;100.00
38038;BME280;23843;51.320;12.340;2023-02-18T08:17:29;100391.59;;;10.34;100.00
38038;BME280;23843;51.320;12.340;2023-02-18T08:19:55;100387.81;;;10.38;100.00
38038;BME280;23843;51.320;12.340;2023-02-18T08:22:21;100379.63;;;10.43;100.00
38038;BME280;23843;51.320;12.340;2023-02-18T08:24:48;100370.00;;;10.42;100.00
38038;BME280;23843;51.320;12.340;2023-02-18T08:27:13;100358.28;;;10.46;100.00
38038;BME280;23843;51.320;12.340;2023-02-18T08:29:39;100359.78;;;10.52;100.00
38038;BME280;23843;51.320;12.340;2023-02-18T08:32:05;100364.81;;;10.56;100.00
38038;BME280;23843;51.320;12.340;2023-02-18T08:34:30;100356.00;;;10.56;100.00
38038;BME280;23843;51.320;12.340;2023-02-18T08:36:56;100350.19;;;10.65;100.00
38038;BME280;23843;51.320;12.340;2023-02-18T08:39:23;100359.88;;;10.66;100.00
38038;BME280;23843;51.320;12.340;2023-02-18T08:41:49;100353.81;;;10.64;100.00
38038;BME280;23843;51.320;12.340;2023-02-18T08:44:15;100369.28;;;10.71;100.00
38038;BME280;23843;51.320;12.340;2023-02-18T08:46:41;100354.06;;;10.75;100.00
38038;BME280;23843;51.320;12.340;2023-02-18T08:49:07;100347.00;;;10.76;100.00
38038;BME280;23843;51.320;12.340;2023-02-18T08:51:34;100348.63;;;10.78;100.00
38038;BME280;23843;51.320;12.340;2023-02-18T08:54:00;100346.03;;;10.77;100.00
38038;BME280;23843;51.320;12.340;2023-02-18T08:56:28;100336.97;;;10.81;100.00
38038;BME280;23843;51.320;12.340;2023-02-18T08:58:54;100338.19;;;10.91;100.00
38038;BME280;23843;51.320;12.340;2023-02-18T09:01:20;100332.69;;;10.94;100.00
38038;BME280;23843;51.320;12.340;2023-02-18T09:03:46;100326.13;;;11.01;100.00
38038;BME280;23843;51.320;12.340;2023-02-18T09:06:13;100316.47;;;11.00;100.00
38038;BME280;23843;51.320;12.340;2023-02-18T09:08:38;100309.69;;;10.95;100.00
38038;BME280;23843;51.320;12.340;2023-02-18T09:11:04;100308.59;;;10.99;100.00
38038;BME280;23843;51.320;12.340;2023-02-18T09:13:32;100298.69;;;11.02;100.00
38038;BME280;23843;51.320;12.340;2023-02-18T09:16:00;100299.53;;;11.03;100.00
38038;BME280;23843;51.320;12.340;2023-02-18T09:18:27;100317.06;;;11.05;100.00
38038;BME280;23843;51.320;12.340;2023-02-18T09:20:55;100309.09;;;11.05;100.00
38038;BME280;23843;51.320;12.340;2023-02-18T09:23:21;100305.50;;;11.06;100.00
38038;BME280;23843;51.320;12.340;2023-02-18T09:25:48;100300.31;;;11.05;100.00
38038;BME280;23843;51.320;12.340;2023-02-18T09:28:13;100294.38;;;11.16;100.00
38038;BME280;23843;51.320;12.340;2023-02-18T09:30:40;100287.44;;;11.13;100.00
38038;BME280;23843;51.320;12.340;2023-02-18T09:33:05;100280.00;;;11.20;100.00
38038;BME280;23843;51.320;12.340;2023-02-18T09:35:31;100285.13;;;11.23;100.00
38038;BME280;23843;51.320;12.340;2023-02-18T09:37:57;100277.75;;;11.28;100.00
38038;BME280;23843;51.320;12.340;2023-02-18T09:40:25;100274.91;;;11.31;100.00
38038;BME280;23843;51.320;12.340;2023-02-18T09:42:53;100270.31;;;11.34;100.00
38038;BME280;23843;51.320;12.340;2023-02-18T09:45:20;100266.50;;;11.39;100.00
38038;BME280;23843;51.320;12.340;2023-02-18T09:47:49;100260.94;;;11.43;100.00
38038;BME280;23843;51.320;12.340;2023-02-18T09:50:18;100255.28;;;11.49;100.00
38038;BME280;23843;51.320;12.340;2023-02-18T09:52:45;100242.13;;;11.62;100.00
38038;BME280;23843;51.320;12.340;2023-02-18T09:55:17;100230.13;;;11.71;100.00
38038;BME280;23843;51.320;12.340;2023-02-18T09:57:45;100215.41;;;11.79;100.00
38038;BME280;23843;51.320;12.340;2023-02-18T10:00:16;100223.41;;;11.94;100.00
38038;BME280;23843;51.320;12.340;2023-02-18T10:02:53;100226.25;;;12.05;100.00
38038;BME280;23843;51.320;12.340;2023-02-18T10:05:19;100211.19;;;12.06;100.00
38038;BME280;23843;51.320;12.340;2023-02-18T10:07:47;100206.78;;;12.19;100.00
38038;BME280;23843;51.320;12.340;2023-02-18T10:10:17;100207.94;;;12.29;100.00
38038;BME280;23843;51.320;12.340;2023-02-18T10:12:45;100214.56;;;12.36;100.00
38038;BME280;23843;51.320;12.340;2023-02-18T10:15:27;100212.75;;;12.37;100.00
38038;BME280;23843;51.320;12.340;2023-02-18T10:17:55;100198.97;;;12.45;100.00
38038;BME280;23843;51.320;12.340;2023-02-18T10:20:25;100201.47;;;12.60;100.00
38038;BME280;23843;51.320;12.340;2023-02-18T10:22:51;100199.16;;;12.83;100.00
38038;BME280;23843;51.320;12.340;2023-02-18T10:25:20;100197.81;;;13.03;100.00
38038;BME280;23843;51.320;12.340;2023-02-18T10:27:47;100197.38;;;13.09;100.00
38038;BME280;23843;51.320;12.340;2023-02-18T10:30:22;100183.38;;;13.07;100.00
38038;BME280;23843;51.320;12.340;2023-02-18T10:32:51;100172.59;;;12.96;100.00
38038;BME280;23843;51.320;12.340;2023-02-18T10:35:24;100176.19;;;12.95;100.00
38038;BME280;23843;51.320;12.340;2023-02-18T10:38:03;100177.91;;;12.96;100.00
38038;BME280;23843;51.320;12.340;2023-02-18T10:40:42;100165.66;;;12.93;100.00
38038;BME280;23843;51.320;12.340;2023-02-18T10:43:21;100168.63;;;12.89;100.00
38038;BME280;23843;51.320;12.340;2023-02-18T10:45:56;100162.63;;;12.72;100.00
38038;BME280;23843;51.320;12.340;2023-02-18T10:48:42;100158.72;;;12.78;100.00
38038;BME280;23843;51.320;12.340;2023-02-18T10:51:18;100160.50;;;12.77;100.00
38038;BME280;23843;51.320;12.340;2023-02-18T10:53:45;100146.50;;;12.75;100.00
38038;BME280;23843;51.320;12.340;2023-02-18T10:56:32;100161.16;;;12.81;100.00
38038;BME280;23843;51.320;12.340;2023-02-18T10:59:01;100169.34;;;12.78;100.00
38038;BME280;23843;51.320;12.340;2023-02-18T11:01:30;100160.38;;;12.66;100.00
38038;BME280;23843;51.320;12.340;2023-02-18T11:04:06;100160.47;;;12.64;100.00
38038;BME280;23843;51.320;12.340;2023-02-18T11:06:38;100159.63;;;12.64;100.00
38038;BME280;23843;51.320;12.340;2023-02-18T11:09:05;100152.97;;;12.71;100.00
38038;BME280;23843;51.320;12.340;2023-02-18T11:11:33;100137.31;;;12.67;100.00
38038;BME280;23843;51.320;12.340;2023-02-18T11:14:02;100141.78;;;12.66;100.00
38038;BME280;23843;51.320;12.340;2023-02-18T11:16:37;100156.41;;;12.59;100.00
38038;BME280;23843;51.320;12.340;2023-02-18T11:19:05;100136.31;;;12.55;100.00
38038;BME280;23843;51.320;12.340;2023-02-18T11:22:06;100134.78;;;12.51;100.00
38038;BME280;23843;51.320;12.340;2023-02-18T11:24:37;100139.94;;;12.54;100.00
38038;BME280;23843;51.320;12.340;2023-02-18T11:27:07;100115.34;;;12.50;100.00
38038;BME280;23843;51.320;12.340;2023-02-18T11:29:34;100132.25;;;12.49;100.00
38038;BME280;23843;51.320;12.340;2023-02-18T11:32:00;100149.09;;;12.35;100.00
38038;BME280;23843;51.320;12.340;2023-02-18T11:34:28;100126.28;;;12.46;100.00
38038;BME280;23843;51.320;12.340;2023-02-18T11:37:07;100117.97;;;12.37;100.00
38038;BME280;23843;51.320;12.340;2023-02-18T11:39:33;100119.47;;;12.41;100.00
38038;BME280;23843;51.320;12.340;2023-02-18T11:42:01;100112.44;;;12.40;100.00
38038;BME280;23843;51.320;12.340;2023-02-18T11:44:30;100105.94;;;12.32;100.00
38038;BME280;23843;51.320;12.340;2023-02-18T11:47:00;100085.53;;;12.32;100.00
38038;BME280;23843;51.320;12.340;2023-02-18T11:49:27;100094.94;;;12.24;100.00
38038;BME280;23843;51.320;12.340;2023-02-18T11:51:53;100092.13;;;12.27;100.00
38038;BME280;23843;51.320;12.340;2023-02-18T11:54:24;100071.94;;;12.24;100.00
38038;BME280;23843;51.320;12.340;2023-02-18T11:56:55;100086.06;;;12.25;100.00
38038;BME280;23843;51.320;12.340;2023-02-18T11:59:22;100069.56;;;12.19;100.00
38038;BME280;23843;51.320;12.340;2023-02-18T12:01:50;100077.31;;;12.23;100.00
38038;BME280;23843;51.320;12.340;2023-02-18T12:04:20;100071.94;;;12.24;100.00
38038;BME280;23843;51.320;12.340;2023-02-18T12:06:53;100083.22;;;12.40;100.00
38038;BME280;23843;51.320;12.340;2023-02-18T12:09:27;100076.78;;;12.45;100.00
38038;BME280;23843;51.320;12.340;2023-02-18T12:11:56;100084.13;;;12.54;100.00
38038;BME280;23843;51.320;12.340;2023-02-18T12:14:28;100085.75;;;12.69;100.00
38038;BME280;23843;51.320;12.340;2023-02-18T12:17:19;100080.97;;;12.74;100.00
38038;BME280;23843;51.320;12.340;2023-02-18T12:22:42;100079.59;;;12.81;100.00
38038;BME280;23843;51.320;12.340;2023-02-18T12:25:21;100077.16;;;12.78;100.00
38038;BME280;23843;51.320;12.340;2023-02-18T12:27:55;100067.16;;;12.82;100.00
38038;BME280;23843;51.320;12.340;2023-02-18T12:33:07;100065.84;;;12.62;100.00
38038;BME280;23843;51.320;12.340;2023-02-18T12:35:48;100060.63;;;12.60;100.00
38038;BME280;23843;51.320;12.340;2023-02-18T12:38:41;100055.44;;;12.59;100.00
38038;BME280;23843;51.320;12.340;2023-02-18T12:41:37;100026.53;;;12.54;100.00
38038;BME280;23843;51.320;12.340;2023-02-18T12:44:16;100041.81;;;12.51;100.00
38038;BME280;23843;51.320;12.340;2023-02-18T12:46:59;100031.19;;;12.51;100.00
38038;BME280;23843;51.320;12.340;2023-02-18T12:49:56;100049.66;;;12.39;100.00
38038;BME280;23843;51.320;12.340;2023-02-18T12:52:33;100044.09;;;12.30;100.00
38038;BME280;23843;51.320;12.340;2023-02-18T12:55:23;100056.41;;;12.31;100.00
38038;BME280;23843;51.320;12.340;2023-02-18T12:58:01;100056.66;;;12.40;100.00
38038;BME280;23843;51.320;12.340;2023-02-18T13:03:38;100057.09;;;12.47;100.00
38038;BME280;23843;51.320;12.340;2023-02-18T13:06:20;100061.75;;;12.43;100.00
38038;BME280;23843;51.320;12.340;2023-02-18T13:08:57;100058.16;;;12.45;100.00
38038;BME280;23843;51.320;12.340;2023-02-18T13:11:36;100074.88;;;12.47;100.00
38038;BME280;23843;51.320;12.340;2023-02-18T13:14:11;100070.66;;;12.30;100.00
38038;BME280;23843;51.320;12.340;2023-02-18T13:16:40;100063.88;;;12.38;100.00
38038;BME280;23843;51.320;12.340;2023-02-18T13:19:15;100064.63;;;12.40;100.00
38038;BME280;23843;51.320;12.340;2023-02-18T13:21:45;100076.28;;;12.25;100.00
38038;BME280;23843;51.320;12.340;2023-02-18T13:24:27;100063.69;;;12.41;100.00
38038;BME280;23843;51.320;12.340;2023-02-18T13:26:59;100082.59;;;12.37;100.00
38038;BME280;23843;51.320;12.340;2023-02-18T13:29:34;100074.06;;;12.32;100.00
38038;BME280;23843;51.320;12.340;2023-02-18T13:32:08;100065.22;;;12.31;100.00
38038;BME280;23843;51.320;12.340;2023-02-18T13:34:42;100077.56;;;12.32;100.00
38038;BME280;23843;51.320;12.340;2023-02-18T13:37:18;100072.19;;;12.34;100.00
38038;BME280;23843;51.320;12.340;2023-02-18T13:39:48;100093.31;;;12.35;100.00
38038;BME280;23843;51.320;12.340;2023-02-18T13:42:25;100087.44;;;12.30;100.00
38038;BME280;23843;51.320;12.340;2023-02-18T13:45:22;100099.59;;;12.34;100.00
38038;BME280;23843;51.320;12.340;2023-02-18T13:47:51;100071.41;;;12.32;100.00
38038;BME280;23843;51.320;12.340;2023-02-18T13:50:38;100072.34;;;12.31;100.00
38038;BME280;23843;51.320;12.340;2023-02-18T13:53:13;100069.81;;;12.29;100.00
38038;BME280;23843;51.320;12.340;2023-02-18T13:55:49;100069.75;;;12.16;100.00
38038;BME280;23843;51.320;12.340;2023-02-18T13:58:19;100071.97;;;12.10;100.00
38038;BME280;23843;51.320;12.340;2023-02-18T14:00:48;100070.63;;;12.17;100.00
38038;BME280;23843;51.320;12.340;2023-02-18T14:03:30;100068.16;;;12.14;100.00
38038;BME280;23843;51.320;12.340;2023-02-18T14:05:56;100083.16;;;12.15;100.00
38038;BME280;23843;51.320;12.340;2023-02-18T14:08:29;100083.31;;;12.12;100.00
38038;BME280;23843;51.320;12.340;2023-02-18T14:11:22;100078.19;;;12.23;100.00
38038;BME280;23843;51.320;12.340;2023-02-18T14:19:40;100106.88;;;12.04;100.00
38038;BME280;23843;51.320;12.340;2023-02-18T14:22:27;100100.72;;;12.03;100.00
38038;BME280;23843;51.320;12.340;2023-02-18T14:24:58;100113.91;;;12.05;100.00
38038;BME280;23843;51.320;12.340;2023-02-18T14:27:25;100109.72;;;12.01;100.00
38038;BME280;23843;51.320;12.340;2023-02-18T14:29:51;100108.59;;;12.05;100.00
38038;BME280;23843;51.320;12.340;2023-02-18T14:32:19;100106.97;;;12.02;100.00
38038;BME280;23843;51.320;12.340;2023-02-18T14:35:01;100098.31;;;12.13;100.00
38038;BME280;23843;51.320;12.340;2023-02-18T14:37:57;100095.47;;;12.16;100.00
38038;BME280;23843;51.320;12.340;2023-02-18T14:40:59;100099.06;;;12.15;100.00
38038;BME280;23843;51.320;12.340;2023-02-18T14:43:44;100097.59;;;11.96;100.00
38038;BME280;23843;51.320;12.340;2023-02-18T14:46:21;100105.75;;;11.93;100.00
38038;BME280;23843;51.320;12.340;2023-02-18T14:49:08;100107.75;;;11.90;100.00
38038;BME280;23843;51.320;12.340;2023-02-18T14:51:39;100102.91;;;11.82;100.00
38038;BME280;23843;51.320;12.340;2023-02-18T14:54:13;100103.09;;;11.79;100.00
38038;BME280;23843;51.320;12.340;2023-02-18T14:56:50;100117.50;;;11.75;100.00
38038;BME280;23843;51.320;12.340;2023-02-18T14:59:18;100119.03;;;11.65;100.00
38038;BME280;23843;51.320;12.340;2023-02-18T15:01:45;100121.09;;;11.74;100.00
38038;BME280;23843;51.320;12.340;2023-02-18T15:04:14;100132.50;;;11.76;100.00
38038;BME280;23843;51.320;12.340;2023-02-18T15:06:41;100138.94;;;11.72;100.00
38038;BME280;23843;51.320;12.340;2023-02-18T15:09:13;100128.66;;;11.80;100.00
38038;BME280;23843;51.320;12.340;2023-02-18T15:11:41;100137.88;;;11.74;100.00
38038;BME280;23843;51.320;12.340;2023-02-18T15:14:13;100149.34;;;11.75;100.00
38038;BME280;23843;51.320;12.340;2023-02-18T15:16:41;100151.53;;;11.68;100.00
38038;BME280;23843;51.320;12.340;2023-02-18T15:19:12;100136.94;;;11.61;100.00
38038;BME280;23843;51.320;12.340;2023-02-18T15:21:43;100117.50;;;11.61;100.00
38038;BME280;23843;51.320;12.340;2023-02-18T15:24:20;100151.25;;;11.59;100.00
38038;BME280;23843;51.320;12.340;2023-02-18T15:26:48;100149.72;;;11.54;100.00
38038;BME280;23843;51.320;12.340;2023-02-18T15:29:17;100148.03;;;11.53;100.00
38038;BME280;23843;51.320;12.340;2023-02-18T15:31:45;100160.69;;;11.48;100.00
38038;BME280;23843;51.320;12.340;2023-02-18T15:34:26;100158.81;;;11.50;100.00
38038;BME280;23843;51.320;12.340;2023-02-18T15:36:55;100154.47;;;11.49;100.00
38038;BME280;23843;51.320;12.340;2023-02-18T15:39:22;100161.38;;;11.38;100.00
38038;BME280;23843;51.320;12.340;2023-02-18T15:41:51;100172.81;;;11.38;100.00
38038;BME280;23843;51.320;12.340;2023-02-18T15:44:21;100174.81;;;11.34;100.00
38038;BME280;23843;51.320;12.340;2023-02-18T15:46:48;100176.78;;;11.31;100.00
38038;BME280;23843;51.320;12.340;2023-02-18T15:49:14;100172.91;;;11.22;100.00
38038;BME280;23843;51.320;12.340;2023-02-18T15:51:43;100175.44;;;11.24;100.00
38038;BME280;23843;51.320;12.340;2023-02-18T15:54:16;100179.06;;;11.23;100.00
38038;BME280;23843;51.320;12.340;2023-02-18T15:56:43;100177.72;;;11.16;100.00
38038;BME280;23843;51.320;12.340;2023-02-18T15:59:16;100180.56;;;11.12;100.00
38038;BME280;23843;51.320;12.340;2023-02-18T16:01:43;100194.13;;;11.22;100.00
38038;BME280;23843;51.320;12.340;2023-02-18T16:04:12;100171.56;;;11.15;100.00
38038;BME280;23843;51.320;12.340;2023-02-18T16:06:44;100185.75;;;11.14;100.00
38038;BME280;23843;51.320;12.340;2023-02-18T16:09:14;100181.84;;;11.05;100.00
38038;BME280;23843;51.320;12.340;2023-02-18T16:11:43;100176.44;;;11.07;100.00
38038;BME280;23843;51.320;12.340;2023-02-18T16:14:22;100191.97;;;10.99;100.00
38038;BME280;23843;51.320;12.340;2023-02-18T16:17:08;100196.31;;;11.00;100.00
38038;BME280;23843;51.320;12.340;2023-02-18T16:19:46;100206.25;;;10.96;100.00
38038;BME280;23843;51.320;12.340;2023-02-18T16:22:26;100195.25;;;10.88;100.00
38038;BME280;23843;51.320;12.340;2023-02-18T16:25:00;100195.84;;;10.93;100.00
38038;BME280;23843;51.320;12.340;2023-02-18T16:27:32;100200.53;;;10.88;100.00
38038;BME280;23843;51.320;12.340;2023-02-18T16:30:02;100207.53;;;10.89;100.00
38038;BME280;23843;51.320;12.340;2023-02-18T16:32:29;100217.22;;;10.90;100.00
38038;BME280;23843;51.320;12.340;2023-02-18T16:34:54;100217.81;;;10.79;100.00
38038;BME280;23843;51.320;12.340;2023-02-18T16:37:20;100209.78;;;10.81;100.00
38038;BME280;23843;51.320;12.340;2023-02-18T16:39:48;100221.56;;;10.75;100.00
38038;BME280;23843;51.320;12.340;2023-02-18T16:42:16;100217.63;;;10.82;100.00
38038;BME280;23843;51.320;12.340;2023-02-18T16:44:42;100222.09;;;10.82;100.00
38038;BME280;23843;51.320;12.340;2023-02-18T16:47:11;100225.50;;;10.84;100.00
38038;BME280;23843;51.320;12.340;2023-02-18T16:49:40;100219.53;;;10.80;100.00
38038;BME280;23843;51.320;12.340;2023-02-18T16:52:09;100223.03;;;10.81;100.00
38038;BME280;23843;51.320;12.340;2023-02-18T16:54:37;100222.25;;;10.79;100.00
38038;BME280;23843;51.320;12.340;2023-02-18T16:57:03;100230.22;;;10.79;100.00
38038;BME280;23843;51.320;12.340;2023-02-18T16:59:30;100231.31;;;10.75;100.00
38038;BME280;23843;51.320;12.340;2023-02-18T17:01:55;100235.84;;;10.73;100.00
38038;BME280;23843;51.320;12.340;2023-02-18T17:04:21;100241.91;;;10.75;100.00
38038;BME280;23843;51.320;12.340;2023-02-18T17:06:46;100252.53;;;10.75;100.00
38038;BME280;23843;51.320;12.340;2023-02-18T17:09:12;100248.94;;;10.76;100.00
38038;BME280;23843;51.320;12.340;2023-02-18T17:11:38;100253.38;;;10.75;100.00
38038;BME280;23843;51.320;12.340;2023-02-18T17:14:03;100254.50;;;10.71;100.00
38038;BME280;23843;51.320;12.340;2023-02-18T17:16:30;100254.41;;;10.73;100.00
38038;BME280;23843;51.320;12.340;2023-02-18T17:18:56;100251.59;;;10.76;100.00
38038;BME280;23843;51.320;12.340;2023-02-18T17:21:24;100266.53;;;10.77;100.00
38038;BME280;23843;51.320;12.340;2023-02-18T17:23:50;100276.88;;;10.65;100.00
38038;BME280;23843;51.320;12.340;2023-02-18T17:26:19;100278.59;;;10.66;100.00
38038;BME280;23843;51.320;12.340;2023-02-18T17:28:46;100280.16;;;10.70;100.00
38038;BME280;23843;51.320;12.340;2023-02-18T17:31:15;100280.41;;;10.66;100.00
38038;BME280;23843;51.320;12.340;2023-02-18T17:33:44;100284.81;;;10.65;100.00
38038;BME280;23843;51.320;12.340;2023-02-18T17:36:11;100292.88;;;10.64;100.00
38038;BME280;23843;51.320;12.340;2023-02-18T17:38:36;100291.31;;;10.60;100.00
38038;BME280;23843;51.320;12.340;2023-02-18T17:41:02;100303.13;;;10.54;100.00
38038;BME280;23843;51.320;12.340;2023-02-18T17:43:28;100311.75;;;10.58;100.00
38038;BME280;23843;51.320;12.340;2023-02-18T17:45:55;100306.19;;;10.62;100.00
38038;BME280;23843;51.320;12.340;2023-02-18T17:48:22;100318.53;;;10.63;100.00
38038;BME280;23843;51.320;12.340;2023-02-18T17:50:51;100321.56;;;10.56;100.00
38038;BME280;23843;51.320;12.340;2023-02-18T17:53:22;100316.19;;;10.57;100.00
38038;BME280;23843;51.320;12.340;2023-02-18T17:55:49;100320.09;;;10.50;100.00
38038;BME280;23843;51.320;12.340;2023-02-18T17:58:16;100330.63;;;10.52;100.00
38038;BME280;23843;51.320;12.340;2023-02-18T18:00:44;100332.50;;;10.49;100.00
38038;BME280;23843;51.320;12.340;2023-02-18T18:03:11;100333.78;;;10.42;100.00
38038;BME280;23843;51.320;12.340;2023-02-18T18:05:39;100330.53;;;10.37;100.00
38038;BME280;23843;51.320;12.340;2023-02-18T18:08:08;100329.06;;;10.32;100.00
38038;BME280;23843;51.320;12.340;2023-02-18T18:10:36;100334.19;;;10.35;100.00
38038;BME280;23843;51.320;12.340;2023-02-18T18:13:04;100344.78;;;10.35;100.00
38038;BME280;23843;51.320;12.340;2023-02-18T18:15:32;100345.56;;;10.37;100.00
38038;BME280;23843;51.320;12.340;2023-02-18T18:17:59;100338.28;;;10.40;100.00
38038;BME280;23843;51.320;12.340;2023-02-18T18:20:29;100349.59;;;10.44;100.00
38038;BME280;23843;51.320;12.340;2023-02-18T18:22:56;100343.50;;;10.42;100.00
38038;BME280;23843;51.320;12.340;2023-02-18T18:25:27;100346.16;;;10.42;100.00
38038;BME280;23843;51.320;12.340;2023-02-18T18:27:52;100345.22;;;10.43;100.00
38038;BME280;23843;51.320;12.340;2023-02-18T18:30:20;100354.00;;;10.43;100.00
38038;BME280;23843;51.320;12.340;2023-02-18T18:32:47;100353.34;;;10.40;100.00